Time;durP1;ratioP1;P1;durP2;ratioP2;P2;SDS_P1;SDS_P2;PMS_P1;PMS_P2;Temp;Humidity;BMP_temperature;BMP_pressure;BME280_temperature;BME280_humidity;BME280_pressure;Samples;Min_cycle;Max_cycle;Signal;HPM_P1;HPM_P2
2022/03/16 07:53:27;;;;;;;25.75;13.13;;;;;;;;;;5120667;27;20407;-91
2022/03/16 07:55:56;;;;;;;24.95;11.52;;;;;;;;;;5117446;28;20713;-91
2022/03/16 07:58:21;;;;;;;24.08;12.70;;;;;;;;;;5123590;28;20106;-93
2022/03/16 08:00:46;;;;;;;25.55;12.02;;;;;;;;;;5104843;28;20107;-93
2022/03/16 08:03:13;;;;;;;24.30;11.55;;;;;;;;;;5107380;28;20012;-93
2022/03/16 08:05:39;;;;;;;24.45;11.65;;;;;;;;;;5108699;28;20523;-91
2022/03/16 08:08:04;;;;;;;24.10;11.98;;;;;;;;;;5104431;28;20107;-93
2022/03/16 08:10:29;;;;;;;25.48;11.95;;;;;;;;;;5088581;28;20028;-93
2022/03/16 08:12:54;;;;;;;24.35;12.00;;;;;;;;;;5099722;28;20531;-92
2022/03/16 08:15:20;;;;;;;22.00;10.88;;;;;;;;;;5106368;28;20027;-94
2022/03/16 08:17:45;;;;;;;21.83;10.50;;;;;;;;;;5107628;28;20016;-92
2022/03/16 08:20:10;;;;;;;22.27;11.32;;;;;;;;;;5102834;28;20051;-94
2022/03/16 08:22:36;;;;;;;23.83;12.15;;;;;;;;;;5086040;28;20103;-92
2022/03/16 08:25:03;;;;;;;23.15;10.70;;;;;;;;;;5087524;28;20020;-93
2022/03/16 08:27:28;;;;;;;22.25;9.82;;;;;;;;;;5086978;28;20084;-94
2022/03/16 08:29:54;;;;;;;21.88;10.63;;;;;;;;;;5106925;28;20043;-93
2022/03/16 08:32:20;;;;;;;24.00;10.57;;;;;;;;;;5107773;28;20031;-93
2022/03/16 08:34:45;;;;;;;23.40;10.93;;;;;;;;;;5107854;28;20168;-86
2022/03/16 08:37:11;;;;;;;25.92;11.07;;;;;;;;;;5107038;28;20114;-93
2022/03/16 08:39:37;;;;;;;21.38;10.05;;;;;;;;;;5104280;28;20025;-92
2022/03/16 08:42:02;;;;;;;25.27;11.25;;;;;;;;;;5087398;28;20028;-85
2022/03/16 08:44:27;;;;;;;23.98;10.07;;;;;;;;;;5087273;28;20020;-94
2022/03/16 08:46:52;;;;;;;24.90;12.20;;;;;;;;;;5088226;28;20012;-89
2022/03/16 08:49:18;;;;;;;25.05;12.10;;;;;;;;;;5100708;28;20468;-93
2022/03/16 08:51:43;;;;;;;25.20;11.68;;;;;;;;;;5086859;28;20062;-94
2022/03/16 08:54:08;;;;;;;23.27;11.82;;;;;;;;;;5086057;28;20028;-93
2022/03/16 08:56:34;;;;;;;24.17;10.43;;;;;;;;;;5086825;28;20028;-93
2022/03/16 08:59:00;;;;;;;22.33;10.50;;;;;;;;;;5100001;28;20027;-92
2022/03/16 09:01:26;;;;;;;23.40;11.80;;;;;;;;;;5107250;28;20027;-93
2022/03/16 09:03:51;;;;;;;22.65;11.23;;;;;;;;;;5097809;28;20016;-93
2022/03/16 09:06:16;;;;;;;21.73;10.55;;;;;;;;;;5093532;28;20059;-94
2022/03/16 09:08:41;;;;;;;21.35;10.05;;;;;;;;;;5089717;28;20016;-85
2022/03/16 09:11:06;;;;;;;23.75;11.05;;;;;;;;;;5073130;28;20035;-93
2022/03/16 09:13:33;;;;;;;22.52;10.52;;;;;;;;;;5074163;28;20017;-93
2022/03/16 09:16:01;;;;;;;24.52;11.10;;;;;;;;;;5093277;28;20095;-94
2022/03/16 09:18:27;;;;;;;22.85;10.98;;;;;;;;;;5092713;28;20032;-93
2022/03/16 09:20:53;;;;;;;20.70;10.48;;;;;;;;;;5092781;28;20099;-94
2022/03/16 09:23:18;;;;;;;27.45;11.65;;;;;;;;;;5093017;28;20021;-93
2022/03/16 09:25:44;;;;;;;23.95;11.95;;;;;;;;;;5093146;28;20012;-93
2022/03/16 09:28:09;;;;;;;23.48;10.88;;;;;;;;;;5089610;28;20027;-92
2022/03/16 09:30:35;;;;;;;26.80;12.63;;;;;;;;;;5073989;28;20028;-87
2022/03/16 09:33:00;;;;;;;22.95;11.43;;;;;;;;;;5081106;28;20035;-90
2022/03/16 09:35:27;;;;;;;24.55;11.23;;;;;;;;;;5093985;28;20345;-94
2022/03/16 09:37:53;;;;;;;21.90;11.98;;;;;;;;;;5088423;28;20016;-91
2022/03/16 09:40:19;;;;;;;22.33;11.38;;;;;;;;;;5072120;28;20031;-93
2022/03/16 09:42:45;;;;;;;22.88;10.75;;;;;;;;;;5087079;28;20024;-94
2022/03/16 09:45:16;;;;;;;24.40;11.50;;;;;;;;;;5091484;28;20060;-93
2022/03/16 09:47:41;;;;;;;27.33;11.67;;;;;;;;;;5093594;28;20031;-93
2022/03/16 09:50:06;;;;;;;24.48;11.27;;;;;;;;;;5092495;28;20020;-96
2022/03/16 09:52:31;;;;;;;23.75;11.48;;;;;;;;;;5108991;28;20126;-96
2022/03/16 09:54:57;;;;;;;25.10;11.38;;;;;;;;;;5092775;28;20100;-95
2022/03/16 09:57:22;;;;;;;26.58;12.43;;;;;;;;;;5091778;28;20024;-95
2022/03/16 09:59:47;;;;;;;23.95;12.57;;;;;;;;;;5088499;28;20025;-95
2022/03/16 10:02:16;;;;;;;24.77;11.27;;;;;;;;;;5072513;28;20009;-95
2022/03/16 10:04:42;;;;;;;21.08;11.00;;;;;;;;;;5071727;28;20025;-93
2022/03/16 10:07:07;;;;;;;25.80;12.20;;;;;;;;;;5071584;28;20043;-94
2022/03/16 10:15:12;;;;;;;22.92;12.13;;;;;;;;;;5092294;28;20399;-94
2022/03/16 10:17:43;;;;;;;24.73;11.98;;;;;;;;;;5092031;28;20027;-93
2022/03/16 10:20:28;;;;;;;26.40;11.77;;;;;;;;;;5093150;28;20356;-94
2022/03/16 10:22:56;;;;;;;21.60;10.90;;;;;;;;;;5092126;28;20447;-94
2022/03/16 10:25:22;;;;;;;25.13;12.35;;;;;;;;;;5091950;28;20197;-96
2022/03/16 10:27:47;;;;;;;25.27;12.68;;;;;;;;;;5091736;28;20535;-95
2022/03/16 10:30:13;;;;;;;23.73;12.13;;;;;;;;;;5090099;28;20012;-94
2022/03/16 10:32:38;;;;;;;28.73;12.20;;;;;;;;;;5091081;28;20028;-95
2022/03/16 10:35:05;;;;;;;26.50;12.57;;;;;;;;;;5092152;28;20372;-95
2022/03/16 10:37:30;;;;;;;22.15;11.15;;;;;;;;;;5087979;28;20065;-95
2022/03/16 10:39:56;;;;;;;24.95;11.63;;;;;;;;;;5092016;28;20107;-95
2022/03/16 10:48:19;;;;;;;28.05;12.73;;;;;;;;;;5092378;28;20430;-92
2022/03/16 10:50:45;;;;;;;27.52;13.07;;;;;;;;;;5091663;28;20495;-95
2022/03/16 10:53:11;;;;;;;23.77;12.27;;;;;;;;;;5091193;28;20027;-95
2022/03/16 10:55:38;;;;;;;24.42;12.45;;;;;;;;;;5090552;28;20023;-95
2022/03/16 10:58:05;;;;;;;28.88;14.10;;;;;;;;;;5087584;28;20077;-94
2022/03/16 11:00:32;;;;;;;26.63;12.77;;;;;;;;;;5082259;28;20024;-96
2022/03/16 11:02:57;;;;;;;27.13;12.70;;;;;;;;;;5082042;28;20032;-95
2022/03/16 11:05:23;;;;;;;29.88;17.10;;;;;;;;;;5088850;28;20020;-95
2022/03/16 11:07:49;;;;;;;35.03;20.52;;;;;;;;;;5091177;28;20016;-95
2022/03/16 11:10:15;;;;;;;41.25;22.58;;;;;;;;;;5091526;28;20487;-93
2022/03/16 11:15:24;;;;;;;23.48;13.00;;;;;;;;;;5092145;28;20289;-95
2022/03/16 11:17:51;;;;;;;28.30;14.30;;;;;;;;;;5089825;28;20016;-95
2022/03/16 11:20:19;;;;;;;59.83;26.60;;;;;;;;;;5090175;28;20468;-96
2022/03/16 11:25:42;;;;;;;42.10;20.20;;;;;;;;;;5080123;28;20038;-95
2022/03/16 11:28:12;;;;;;;45.95;20.42;;;;;;;;;;5086823;28;20048;-95
2022/03/16 11:30:37;;;;;;;27.85;13.80;;;;;;;;;;5076113;28;20018;-95
2022/03/16 11:33:08;;;;;;;28.13;15.65;;;;;;;;;;5090064;28;20031;-95
2022/03/16 11:35:34;;;;;;;25.80;13.73;;;;;;;;;;5089899;28;20050;-86
2022/03/16 11:38:04;;;;;;;24.80;13.20;;;;;;;;;;5086217;28;20784;-95
2022/03/16 11:40:29;;;;;;;31.67;20.02;;;;;;;;;;5070467;28;20133;-95
2022/03/16 11:43:04;;;;;;;33.47;17.95;;;;;;;;;;5069602;28;20089;-95
2022/03/16 11:45:43;;;;;;;28.98;17.13;;;;;;;;;;5070133;28;20127;-95
2022/03/16 11:48:34;;;;;;;29.45;15.20;;;;;;;;;;5075446;28;20031;-95
2022/03/16 11:51:09;;;;;;;31.38;18.45;;;;;;;;;;5089980;28;20061;-94
2022/03/16 11:53:46;;;;;;;32.53;19.45;;;;;;;;;;5091740;28;20028;-95
2022/03/16 11:56:20;;;;;;;31.10;18.90;;;;;;;;;;5091528;28;20030;-95
2022/03/16 11:58:47;;;;;;;26.77;14.70;;;;;;;;;;5086172;28;20115;-95
2022/03/16 12:01:31;;;;;;;26.08;14.50;;;;;;;;;;5069886;28;20462;-95
2022/03/16 12:04:35;;;;;;;25.38;12.07;;;;;;;;;;5071162;28;20021;-96
2022/03/16 12:07:05;;;;;;;24.88;12.77;;;;;;;;;;5068324;28;20024;-95
2022/03/16 12:09:33;;;;;;;25.38;12.60;;;;;;;;;;5053780;28;20029;-94
2022/03/16 12:15:15;;;;;;;23.67;12.93;;;;;;;;;;5073064;28;20503;-91
2022/03/16 12:17:43;;;;;;;;;;;;;;;;;;5073733;28;20029;-92
2022/03/16 12:20:11;;;;;;;24.20;12.07;;;;;;;;;;5092051;28;19904;-93
2022/03/16 12:22:47;;;;;;;23.27;12.18;;;;;;;;;;5091860;28;20024;-91
2022/03/16 12:25:27;;;;;;;23.35;11.13;;;;;;;;;;5092335;28;20031;-93
2022/03/16 12:30:44;;;;;;;21.95;11.25;;;;;;;;;;5093247;28;20057;-87
2022/03/16 12:33:11;;;;;;;26.27;13.00;;;;;;;;;;5092768;28;20091;-93
2022/03/16 12:35:36;;;;;;;21.40;11.68;;;;;;;;;;5092096;28;20027;-93
2022/03/16 12:38:02;;;;;;;23.67;11.63;;;;;;;;;;5092417;28;20020;-93
2022/03/16 12:40:29;;;;;;;23.17;11.32;;;;;;;;;;5095365;28;20016;-87
2022/03/16 12:42:56;;;;;;;24.55;12.80;;;;;;;;;;5094415;28;20397;-87
2022/03/16 12:45:22;;;;;;;23.90;11.50;;;;;;;;;;5093994;28;20020;-88
2022/03/16 12:47:52;;;;;;;22.10;10.95;;;;;;;;;;5093365;28;20069;-87
2022/03/16 12:50:17;;;;;;;23.67;11.73;;;;;;;;;;5092569;28;20115;-87
2022/03/16 12:52:48;;;;;;;22.33;11.07;;;;;;;;;;5093979;28;20467;-87
2022/03/16 12:55:14;;;;;;;24.05;10.55;;;;;;;;;;5094441;28;20480;-87
2022/03/16 12:57:40;;;;;;;22.67;11.25;;;;;;;;;;5093852;28;20127;-87
2022/03/16 13:00:11;;;;;;;23.45;11.48;;;;;;;;;;5094271;28;20051;-87
2022/03/16 13:02:37;;;;;;;21.75;10.98;;;;;;;;;;5090718;28;20499;-87
2022/03/16 13:05:02;;;;;;;17.73;9.77;;;;;;;;;;5084145;28;20055;-86
2022/03/16 13:07:28;;;;;;;21.38;10.52;;;;;;;;;;5092818;28;20047;-86
2022/03/16 13:09:53;;;;;;;22.27;10.48;;;;;;;;;;5094700;28;20024;-90
2022/03/16 13:12:21;;;;;;;19.00;10.00;;;;;;;;;;5091182;28;20031;-92
2022/03/16 13:14:49;;;;;;;20.55;9.43;;;;;;;;;;5093349;28;20096;-93
2022/03/16 13:17:15;;;;;;;23.58;11.30;;;;;;;;;;5093510;28;20540;-92
2022/03/16 13:19:44;;;;;;;20.02;9.50;;;;;;;;;;5094590;28;20137;-91
2022/03/16 13:22:09;;;;;;;22.02;10.48;;;;;;;;;;5095142;28;20068;-92
2022/03/16 13:24:39;;;;;;;21.02;10.25;;;;;;;;;;5090832;28;20036;-92
2022/03/16 13:27:06;;;;;;;25.13;11.10;;;;;;;;;;5086268;28;20387;-92
2022/03/16 13:29:33;;;;;;;22.73;10.52;;;;;;;;;;5084399;28;20027;-86
2022/03/16 13:31:59;;;;;;;18.45;10.77;;;;;;;;;;5093660;28;20008;-86
2022/03/16 13:34:26;;;;;;;19.40;9.70;;;;;;;;;;5093413;28;20021;-92
2022/03/16 13:36:51;;;;;;;18.27;8.63;;;;;;;;;;5094269;28;20082;-92
2022/03/16 13:39:27;;;;;;;22.95;8.98;;;;;;;;;;5093110;28;20028;-90
2022/03/16 13:42:13;;;;;;;20.60;9.10;;;;;;;;;;5094861;28;20016;-92
2022/03/16 13:44:40;;;;;;;19.33;9.50;;;;;;;;;;5093650;28;20020;-89
2022/03/16 13:47:11;;;;;;;17.88;8.88;;;;;;;;;;5093906;28;20019;-90
2022/03/16 13:49:44;;;;;;;;;;;;;;;;;;5094241;28;20028;-92
2022/03/16 13:52:10;;;;;;;20.60;8.90;;;;;;;;;;5093628;28;19920;-92
2022/03/16 13:54:36;;;;;;;18.33;8.70;;;;;;;;;;5093740;28;20027;-92
2022/03/16 13:57:12;;;;;;;18.70;8.98;;;;;;;;;;5094197;28;20051;-86
2022/03/16 13:59:37;;;;;;;20.83;9.10;;;;;;;;;;5093811;28;20078;-91
2022/03/16 14:02:13;;;;;;;20.20;9.70;;;;;;;;;;5094004;28;20032;-92
2022/03/16 14:04:40;;;;;;;20.65;8.30;;;;;;;;;;5094099;28;20027;-92
2022/03/16 14:07:18;;;;;;;21.10;9.70;;;;;;;;;;5095202;28;20113;-92
2022/03/16 14:09:45;;;;;;;17.52;8.50;;;;;;;;;;5093795;28;20024;-92
2022/03/16 14:12:13;;;;;;;15.90;8.07;;;;;;;;;;5093454;28;20520;-86
2022/03/16 14:14:38;;;;;;;16.98;8.02;;;;;;;;;;5093758;28;20043;-92
2022/03/16 14:17:03;;;;;;;17.92;8.23;;;;;;;;;;5093775;28;20101;-92
2022/03/16 14:19:29;;;;;;;16.13;8.00;;;;;;;;;;5094706;28;20480;-92
2022/03/16 14:21:55;;;;;;;17.13;8.38;;;;;;;;;;5093106;28;20017;-93
2022/03/16 14:24:22;;;;;;;18.42;7.57;;;;;;;;;;5092985;28;20027;-92
2022/03/16 14:26:48;;;;;;;18.08;8.90;;;;;;;;;;5093803;28;20161;-92
2022/03/16 14:29:13;;;;;;;16.65;8.75;;;;;;;;;;5094204;28;20049;-88
2022/03/16 14:31:38;;;;;;;16.13;8.52;;;;;;;;;;5094172;28;20114;-92
2022/03/16 14:34:05;;;;;;;18.63;8.27;;;;;;;;;;5092680;28;20034;-90
2022/03/16 14:36:32;;;;;;;15.77;8.35;;;;;;;;;;5093050;28;20020;-93
2022/03/16 14:38:57;;;;;;;20.13;9.23;;;;;;;;;;5092978;28;20059;-92
2022/03/16 14:41:23;;;;;;;18.15;8.73;;;;;;;;;;5093146;28;20484;-92
2022/03/16 14:43:48;;;;;;;19.92;9.05;;;;;;;;;;5092158;28;20024;-92
2022/03/16 14:46:14;;;;;;;23.50;8.18;;;;;;;;;;5093070;28;20574;-92
2022/03/16 14:48:39;;;;;;;17.42;8.15;;;;;;;;;;5076708;28;20025;-92
2022/03/16 14:51:04;;;;;;;16.92;7.32;;;;;;;;;;5073679;28;20115;-92
2022/03/16 14:53:29;;;;;;;17.60;9.07;;;;;;;;;;5083137;28;20488;-89
2022/03/16 14:55:57;;;;;;;19.33;8.27;;;;;;;;;;5081678;28;20367;-92
2022/03/16 14:58:22;;;;;;;18.35;7.43;;;;;;;;;;5092855;28;20016;-87
2022/03/16 15:00:47;;;;;;;18.73;8.15;;;;;;;;;;5088691;28;20058;-92
2022/03/16 15:03:14;;;;;;;17.15;8.48;;;;;;;;;;5072360;28;20069;-92
2022/03/16 15:05:41;;;;;;;14.65;7.65;;;;;;;;;;5072419;28;20020;-93
2022/03/16 15:08:07;;;;;;;16.85;7.45;;;;;;;;;;5072404;28;20023;-92
2022/03/16 15:10:32;;;;;;;15.38;7.15;;;;;;;;;;5072360;28;20024;-93
2022/03/16 15:12:57;;;;;;;15.38;7.55;;;;;;;;;;5071963;28;20066;-92
2022/03/16 15:15:23;;;;;;;16.85;7.40;;;;;;;;;;5073940;28;20365;-92
2022/03/16 15:17:48;;;;;;;17.02;8.45;;;;;;;;;;5072242;28;20387;-93
2022/03/16 15:20:14;;;;;;;16.00;7.40;;;;;;;;;;5073121;28;20507;-93
2022/03/16 15:22:39;;;;;;;13.90;7.43;;;;;;;;;;5072089;28;20054;-92
2022/03/16 15:25:05;;;;;;;12.30;6.45;;;;;;;;;;5072046;28;20017;-93
2022/03/16 15:27:31;;;;;;;16.40;7.60;;;;;;;;;;5073714;28;20475;-93
2022/03/16 15:29:58;;;;;;;14.80;6.97;;;;;;;;;;5072259;28;20044;-92
2022/03/16 15:32:26;;;;;;;16.70;8.00;;;;;;;;;;5087908;28;20024;-91
2022/03/16 15:34:52;;;;;;;19.88;7.40;;;;;;;;;;5091725;28;20096;-92
2022/03/16 15:37:17;;;;;;;13.50;7.60;;;;;;;;;;5082368;28;20476;-92
2022/03/16 15:42:38;;;;;;;13.88;6.95;;;;;;;;;;5087893;28;20035;-92
2022/03/16 15:42:42;;;;;;;16.83;7.38;;;;;;;;;;5091758;28;20031;-93
2022/03/16 15:45:07;;;;;;;13.25;7.57;;;;;;;;;;5090910;28;20013;-92
2022/03/16 15:47:32;;;;;;;19.08;8.27;;;;;;;;;;5091619;28;20012;-92
2022/03/16 15:49:58;;;;;;;13.70;8.05;;;;;;;;;;5091790;28;20043;-87
2022/03/16 15:52:23;;;;;;;16.25;8.40;;;;;;;;;;5091803;28;20028;-92
2022/03/16 15:54:48;;;;;;;15.20;8.20;;;;;;;;;;5091738;28;20483;-92
2022/03/16 15:57:13;;;;;;;16.65;7.85;;;;;;;;;;5090386;28;20024;-93
2022/03/16 15:59:39;;;;;;;17.23;8.55;;;;;;;;;;5091756;28;20346;-92
2022/03/16 16:02:05;;;;;;;16.95;8.73;;;;;;;;;;5092858;28;20051;-92
2022/03/16 16:04:31;;;;;;;16.08;8.30;;;;;;;;;;5092276;28;20130;-93
2022/03/16 16:06:57;;;;;;;17.30;8.50;;;;;;;;;;5093252;28;20036;-92
2022/03/16 16:09:22;;;;;;;14.90;8.05;;;;;;;;;;5092205;28;20024;-92
2022/03/16 16:11:47;;;;;;;20.63;9.52;;;;;;;;;;5092023;28;20030;-92
2022/03/16 16:14:13;;;;;;;16.88;8.43;;;;;;;;;;5094468;28;20016;-91
2022/03/16 16:16:40;;;;;;;19.77;9.23;;;;;;;;;;5097078;28;20020;-86
2022/03/16 16:19:05;;;;;;;18.90;8.13;;;;;;;;;;5095707;28;20043;-92
2022/03/16 16:21:33;;;;;;;17.73;9.02;;;;;;;;;;5093140;28;20468;-92
2022/03/16 16:23:58;;;;;;;20.42;8.73;;;;;;;;;;5097052;28;20020;-93
2022/03/16 16:26:23;;;;;;;16.92;8.38;;;;;;;;;;5097154;28;20095;-93
2022/03/16 16:28:48;;;;;;;18.63;9.48;;;;;;;;;;5095804;28;20034;-92
2022/03/16 16:31:14;;;;;;;23.15;12.63;;;;;;;;;;5095873;28;20020;-88
2022/03/16 16:33:39;;;;;;;22.13;11.82;;;;;;;;;;5095277;28;20480;-88
2022/03/16 16:36:05;;;;;;;18.00;9.00;;;;;;;;;;5095292;28;20059;-93
2022/03/16 16:38:30;;;;;;;19.80;9.98;;;;;;;;;;5095857;28;20024;-87
2022/03/16 16:40:57;;;;;;;28.38;15.35;;;;;;;;;;5095103;28;20460;-92
2022/03/16 16:43:23;;;;;;;26.25;13.38;;;;;;;;;;5095822;28;20027;-92
2022/03/16 16:45:53;;;;;;;24.38;11.73;;;;;;;;;;5094609;28;20020;-89
2022/03/16 16:48:21;;;;;;;25.80;12.93;;;;;;;;;;5094791;28;20069;-91
2022/03/16 16:50:49;;;;;;;23.73;12.38;;;;;;;;;;5094721;28;20106;-85
2022/03/16 16:53:15;;;;;;;26.15;12.65;;;;;;;;;;5094123;28;20036;-92
2022/03/16 16:55:41;;;;;;;26.80;13.18;;;;;;;;;;5094120;28;20020;-88
2022/03/16 16:58:06;;;;;;;31.30;15.98;;;;;;;;;;5095226;28;20035;-89
2022/03/16 17:00:33;;;;;;;34.88;14.65;;;;;;;;;;5096606;28;20020;-91
2022/03/16 17:02:58;;;;;;;27.23;14.57;;;;;;;;;;5095655;28;20031;-91
2022/03/16 17:05:27;;;;;;;40.60;27.85;;;;;;;;;;5095271;28;20043;-89
2022/03/16 17:08:04;;;;;;;35.75;22.45;;;;;;;;;;5094127;28;20020;-90
2022/03/16 17:10:30;;;;;;;32.80;21.77;;;;;;;;;;5093807;28;20456;-90
2022/03/16 17:12:55;;;;;;;69.50;47.92;;;;;;;;;;5095434;28;20034;-91
2022/03/16 17:15:21;;;;;;;63.40;44.72;;;;;;;;;;5094704;28;20016;-91
2022/03/16 17:17:49;;;;;;;35.45;20.52;;;;;;;;;;5094346;28;20035;-91
2022/03/16 17:20:14;;;;;;;28.67;18.08;;;;;;;;;;5094706;28;20027;-91
2022/03/16 17:22:40;;;;;;;31.42;18.75;;;;;;;;;;5094360;28;20024;-91
2022/03/16 17:25:05;;;;;;;29.48;18.65;;;;;;;;;;5094174;28;20028;-90
2022/03/16 17:27:32;;;;;;;24.90;13.40;;;;;;;;;;5094116;28;20020;-90
2022/03/16 17:29:58;;;;;;;25.85;14.35;;;;;;;;;;5094412;28;20082;-91
2022/03/16 17:32:23;;;;;;;28.15;17.77;;;;;;;;;;5094535;28;20488;-92
2022/03/16 17:34:49;;;;;;;23.35;12.73;;;;;;;;;;5093021;28;20024;-87
2022/03/16 17:37:14;;;;;;;24.73;14.52;;;;;;;;;;5095665;28;20021;-89
2022/03/16 17:39:40;;;;;;;24.48;13.63;;;;;;;;;;5094111;28;20073;-88
2022/03/16 17:47:33;;;;;;;26.33;12.52;;;;;;;;;;5075403;28;20027;-85
2022/03/16 17:49:58;;;;;;;22.35;12.63;;;;;;;;;;5074130;28;20024;-89
2022/03/16 17:52:23;;;;;;;23.55;12.00;;;;;;;;;;5073874;28;20036;-90
2022/03/16 17:54:48;;;;;;;26.23;13.65;;;;;;;;;;5073952;28;20078;-89
2022/03/16 17:57:13;;;;;;;23.27;12.57;;;;;;;;;;5074390;28;20036;-86
2022/03/16 17:59:39;;;;;;;23.42;12.45;;;;;;;;;;5075605;28;20051;-90
2022/03/16 18:02:05;;;;;;;38.42;25.60;;;;;;;;;;5074063;28;20484;-89
2022/03/16 18:04:31;;;;;;;29.27;19.25;;;;;;;;;;5075081;28;20020;-88
2022/03/16 18:06:57;;;;;;;28.85;19.83;;;;;;;;;;5073854;28;20397;-90
2022/03/16 18:09:22;;;;;;;30.05;17.90;;;;;;;;;;5074743;28;20027;-90
2022/03/16 18:14:31;;;;;;;30.63;18.23;;;;;;;;;;5075329;28;20388;-90
2022/03/16 18:16:57;;;;;;;26.45;14.23;;;;;;;;;;5073196;28;20115;-86
2022/03/16 18:19:22;;;;;;;28.25;16.95;;;;;;;;;;5073580;28;20024;-90
2022/03/16 18:24:32;;;;;;;25.55;14.82;;;;;;;;;;5075148;28;20038;-93
2022/03/16 18:26:57;;;;;;;26.00;15.27;;;;;;;;;;5073214;28;20024;-92
2022/03/16 18:29:23;;;;;;;26.73;15.13;;;;;;;;;;5073484;28;20028;-95
2022/03/16 18:31:48;;;;;;;26.70;13.65;;;;;;;;;;5073226;28;20126;-94
2022/03/16 18:34:14;;;;;;;27.15;14.55;;;;;;;;;;5072794;28;20024;-96
2022/03/16 18:36:39;;;;;;;22.35;13.20;;;;;;;;;;5078306;28;20633;-94
2022/03/16 18:39:05;;;;;;;27.80;14.30;;;;;;;;;;5093488;28;20024;-93
2022/03/16 18:41:32;;;;;;;26.00;13.80;;;;;;;;;;5090099;28;20372;-94
2022/03/16 18:43:57;;;;;;;25.40;14.25;;;;;;;;;;5074363;28;20484;-86
2022/03/16 18:46:22;;;;;;;24.85;14.85;;;;;;;;;;5090068;28;20020;-95
2022/03/16 18:48:49;;;;;;;26.02;14.15;;;;;;;;;;5090825;28;20522;-95
2022/03/16 18:51:15;;;;;;;29.88;18.95;;;;;;;;;;5092743;28;20122;-94
2022/03/16 18:53:43;;;;;;;31.63;19.38;;;;;;;;;;5089061;28;20024;-87
2022/03/16 18:56:08;;;;;;;29.33;18.50;;;;;;;;;;5072501;28;20383;-86
2022/03/16 18:58:33;;;;;;;32.55;23.55;;;;;;;;;;5073938;28;20012;-93
2022/03/16 19:01:01;;;;;;;35.15;23.27;;;;;;;;;;5074914;28;20013;-93
2022/03/16 19:03:26;;;;;;;42.45;26.00;;;;;;;;;;5088788;28;20391;-91
2022/03/16 19:05:52;;;;;;;44.38;25.35;;;;;;;;;;5093116;28;20016;-96
2022/03/16 19:08:17;;;;;;;33.03;20.95;;;;;;;;;;5088531;28;20022;-95
2022/03/16 19:10:43;;;;;;;28.20;18.13;;;;;;;;;;5092867;28;20020;-95
2022/03/16 19:15:55;;;;;;;38.35;24.20;;;;;;;;;;5094604;28;20100;-86
2022/03/16 19:18:21;;;;;;;34.58;22.13;;;;;;;;;;5088399;28;20059;-94
2022/03/16 19:20:46;;;;;;;31.02;19.45;;;;;;;;;;5091689;28;20030;-91
2022/03/16 19:23:12;;;;;;;36.60;22.58;;;;;;;;;;5091595;28;20016;-88
2022/03/16 19:25:38;;;;;;;31.17;19.13;;;;;;;;;;5092682;28;20077;-92
2022/03/16 19:28:04;;;;;;;26.77;16.40;;;;;;;;;;5092962;28;20695;-94
2022/03/16 19:30:30;;;;;;;32.30;17.38;;;;;;;;;;5092265;28;20119;-94
2022/03/16 19:32:55;;;;;;;28.48;16.10;;;;;;;;;;5092482;28;20067;-91
2022/03/16 19:35:23;;;;;;;48.10;26.17;;;;;;;;;;5093629;28;20378;-86
2022/03/16 19:37:48;;;;;;;44.08;21.65;;;;;;;;;;5091874;28;20028;-93
2022/03/16 19:40:13;;;;;;;41.83;23.63;;;;;;;;;;5091667;28;20414;-90
2022/03/16 19:42:40;;;;;;;28.58;16.80;;;;;;;;;;5091728;28;20027;-91
2022/03/16 19:45:06;;;;;;;27.45;14.93;;;;;;;;;;5092312;28;20024;-91
2022/03/16 19:47:32;;;;;;;25.45;15.00;;;;;;;;;;5092000;28;20034;-91
2022/03/16 19:49:57;;;;;;;28.92;14.43;;;;;;;;;;5093272;28;20028;-91
2022/03/16 19:52:22;;;;;;;36.13;19.02;;;;;;;;;;5093356;28;20089;-91
2022/03/16 19:54:48;;;;;;;32.90;17.92;;;;;;;;;;5093488;28;20043;-90
2022/03/16 19:57:13;;;;;;;28.70;16.30;;;;;;;;;;5092352;28;20078;-91
2022/03/16 19:59:40;;;;;;;33.00;16.50;;;;;;;;;;5092253;28;20039;-90
2022/03/16 20:02:07;;;;;;;50.63;21.52;;;;;;;;;;5092186;28;20112;-86
2022/03/16 20:04:32;;;;;;;39.85;21.67;;;;;;;;;;5091958;28;20402;-91
2022/03/16 20:06:57;;;;;;;42.30;27.05;;;;;;;;;;5091805;28;20022;-88
2022/03/16 20:09:22;;;;;;;65.18;37.42;;;;;;;;;;5092349;28;20021;-91
2022/03/16 20:11:48;;;;;;;55.72;31.33;;;;;;;;;;5093197;28;20042;-91
2022/03/16 20:14:14;;;;;;;54.63;30.80;;;;;;;;;;5092034;28;20044;-92
2022/03/16 20:16:43;;;;;;;53.88;29.73;;;;;;;;;;5091807;28;20069;-91
2022/03/16 20:19:08;;;;;;;47.22;24.77;;;;;;;;;;5092089;28;20020;-91
2022/03/16 20:21:34;;;;;;;30.35;18.63;;;;;;;;;;5092137;28;20353;-89
2022/03/16 20:24:00;;;;;;;30.48;17.75;;;;;;;;;;5092396;28;20016;-91
2022/03/16 20:26:25;;;;;;;29.75;16.85;;;;;;;;;;5090699;28;20463;-87
2022/03/16 20:28:56;;;;;;;28.25;15.98;;;;;;;;;;5091540;28;20434;-87
2022/03/16 20:31:21;;;;;;;29.55;17.08;;;;;;;;;;5091742;28;20111;-91
2022/03/16 20:33:48;;;;;;;31.15;17.92;;;;;;;;;;5091573;28;20122;-87
2022/03/16 20:36:15;;;;;;;29.65;15.55;;;;;;;;;;5091744;28;20478;-90
2022/03/16 20:38:41;;;;;;;26.98;15.73;;;;;;;;;;5090096;28;20054;-91
2022/03/16 20:41:06;;;;;;;32.65;20.60;;;;;;;;;;5091165;28;20055;-91
2022/03/16 20:43:31;;;;;;;50.47;38.53;;;;;;;;;;5084977;28;20021;-91
2022/03/16 20:45:57;;;;;;;36.13;25.35;;;;;;;;;;5077597;28;20387;-87
2022/03/16 20:48:23;;;;;;;33.40;18.35;;;;;;;;;;5087118;28;20039;-92
2022/03/16 20:50:48;;;;;;;30.33;16.70;;;;;;;;;;5091246;28;20020;-91
2022/03/16 20:53:14;;;;;;;31.27;16.95;;;;;;;;;;5090180;28;20132;-90
2022/03/16 20:55:39;;;;;;;32.13;17.27;;;;;;;;;;5092363;28;20041;-86
2022/03/16 20:58:04;;;;;;;31.05;18.35;;;;;;;;;;5090992;28;20031;-91
2022/03/16 21:00:42;;;;;;;37.50;21.80;;;;;;;;;;5093880;28;20031;-91
2022/03/16 21:03:08;;;;;;;37.67;20.35;;;;;;;;;;5095812;28;20020;-86
2022/03/16 21:05:34;;;;;;;36.45;20.48;;;;;;;;;;5094692;28;20464;-91
2022/03/16 21:08:01;;;;;;;30.77;17.17;;;;;;;;;;5095846;28;20026;-91
2022/03/16 21:10:27;;;;;;;29.05;16.85;;;;;;;;;;5094718;28;20054;-91
2022/03/16 21:12:52;;;;;;;39.67;22.05;;;;;;;;;;5095119;28;20032;-91
2022/03/16 21:15:17;;;;;;;35.53;20.80;;;;;;;;;;5094949;28;20031;-91
2022/03/16 21:17:42;;;;;;;29.98;18.17;;;;;;;;;;5094852;28;20024;-86
2022/03/16 21:20:08;;;;;;;30.15;17.45;;;;;;;;;;5095823;28;20019;-91
2022/03/16 21:22:35;;;;;;;30.35;16.52;;;;;;;;;;5094360;28;20503;-89
2022/03/16 21:25:02;;;;;;;30.75;17.27;;;;;;;;;;5094481;28;20020;-92
2022/03/16 21:27:28;;;;;;;29.92;17.63;;;;;;;;;;5094445;28;20456;-92
2022/03/16 21:29:54;;;;;;;30.00;16.50;;;;;;;;;;5094230;28;20013;-91
2022/03/16 21:32:20;;;;;;;31.77;16.80;;;;;;;;;;5093583;28;20418;-91
2022/03/16 21:34:46;;;;;;;30.67;15.52;;;;;;;;;;5094135;28;20539;-91
2022/03/16 21:37:17;;;;;;;28.80;15.73;;;;;;;;;;5094116;28;20024;-92
2022/03/16 21:39:42;;;;;;;32.58;16.83;;;;;;;;;;5095207;28;20093;-91
2022/03/16 21:44:52;;;;;;;34.15;16.67;;;;;;;;;;5095516;28;20023;-92
2022/03/16 21:47:17;;;;;;;30.15;16.15;;;;;;;;;;5093946;28;20020;-91
2022/03/16 21:49:43;;;;;;;34.78;17.75;;;;;;;;;;5094118;28;20020;-85
2022/03/16 21:52:12;;;;;;;35.25;16.80;;;;;;;;;;5093931;28;20034;-91
2022/03/16 21:54:38;;;;;;;35.38;18.00;;;;;;;;;;5093932;28;20056;-91
2022/03/16 21:57:04;;;;;;;30.23;16.48;;;;;;;;;;5093705;28;20031;-89
2022/03/16 21:59:30;;;;;;;32.55;16.75;;;;;;;;;;5092796;28;20078;-92
2022/03/16 22:01:55;;;;;;;31.60;17.20;;;;;;;;;;5093622;28;20024;-92
2022/03/16 22:04:21;;;;;;;27.75;16.05;;;;;;;;;;5090965;28;20035;-90
2022/03/16 22:06:48;;;;;;;31.45;16.60;;;;;;;;;;5088894;28;20515;-92
2022/03/16 22:09:13;;;;;;;30.98;17.10;;;;;;;;;;5074975;28;20020;-87
2022/03/16 22:11:38;;;;;;;31.80;16.65;;;;;;;;;;5073104;28;20491;-86
2022/03/16 22:14:07;;;;;;;27.63;16.77;;;;;;;;;;5074473;28;20044;-93
2022/03/16 22:16:33;;;;;;;31.45;16.63;;;;;;;;;;5074270;28;20019;-92
2022/03/16 22:18:58;;;;;;;28.65;16.75;;;;;;;;;;5073121;28;20016;-92
2022/03/16 22:21:24;;;;;;;32.63;17.35;;;;;;;;;;5073261;28;20024;-85
2022/03/16 22:23:51;;;;;;;30.92;17.00;;;;;;;;;;5074093;28;20020;-86
2022/03/16 22:26:16;;;;;;;32.47;18.70;;;;;;;;;;5074091;28;20023;-92
2022/03/16 22:28:41;;;;;;;31.77;16.80;;;;;;;;;;5089982;28;20028;-92
2022/03/16 22:31:07;;;;;;;35.88;18.55;;;;;;;;;;5072988;28;20024;-85
2022/03/16 22:33:32;;;;;;;30.50;16.40;;;;;;;;;;5073058;28;20435;-86
2022/03/16 22:35:57;;;;;;;32.97;17.75;;;;;;;;;;5072825;28;20012;-91
2022/03/16 22:38:22;;;;;;;32.85;17.65;;;;;;;;;;5073493;28;20016;-92
2022/03/16 22:40:48;;;;;;;33.17;17.55;;;;;;;;;;5073149;28;20020;-90
2022/03/16 22:43:13;;;;;;;28.40;16.23;;;;;;;;;;5072778;28;20024;-92
2022/03/16 22:45:39;;;;;;;28.90;16.88;;;;;;;;;;5072928;28;20020;-92
2022/03/16 22:48:05;;;;;;;33.15;16.20;;;;;;;;;;5073312;28;20491;-89
2022/03/16 22:50:31;;;;;;;33.70;17.50;;;;;;;;;;5091341;28;20075;-91